createdAt,value
2023-03-07T00:08:38.792Z,82.96
2023-03-07T00:18:12.497Z,82.37
2023-03-07T00:27:45.783Z,82.85
2023-03-07T00:37:19.261Z,82.93
2023-03-07T00:46:53.043Z,83.21
2023-03-07T00:56:27.029Z,83.49
2023-03-07T01:06:00.609Z,84.02
2023-03-07T01:15:34.495Z,84.61
2023-03-07T01:25:08.090Z,85.33
2023-03-07T01:34:41.663Z,85.71
2023-03-07T01:44:15.371Z,86.43
2023-03-07T01:53:49.054Z,87.25
2023-03-07T02:03:23.073Z,87.96
2023-03-07T02:12:58.404Z,88.63
2023-03-07T02:22:31.903Z,89.15
2023-03-07T02:32:03.756Z,89.53
2023-03-07T02:41:38.891Z,89.84
2023-03-07T02:51:10.730Z,89.81
2023-03-07T03:00:46.154Z,89.87
2023-03-07T03:10:18.275Z,90.17
2023-03-07T03:19:52.318Z,90.53
2023-03-07T03:29:26.175Z,90.90
2023-03-07T03:39:01.430Z,91.44
2023-03-07T03:48:35.270Z,91.74
2023-03-07T03:58:08.941Z,91.54
2023-03-07T04:07:42.307Z,91.31
2023-03-07T04:17:14.864Z,91.08
2023-03-07T04:26:48.518Z,90.90
2023-03-07T04:36:23.674Z,90.79
2023-03-07T04:45:55.493Z,90.02
2023-03-07T04:55:29.414Z,89.76
2023-03-07T05:05:03.483Z,89.35
2023-03-07T05:14:38.968Z,89.14
2023-03-07T05:24:12.816Z,88.76
2023-03-07T05:33:45.022Z,88.37
2023-03-07T05:43:18.587Z,87.88
2023-03-07T05:52:52.444Z,87.52
2023-03-07T06:02:26.701Z,87.05
2023-03-07T06:12:01.935Z,86.71
2023-03-07T06:21:34.061Z,86.28
2023-03-07T06:31:07.963Z,86.11
2023-03-07T06:40:41.820Z,85.70
2023-03-07T06:50:19.261Z,85.85
2023-03-07T06:59:49.276Z,85.54
2023-03-07T07:09:24.944Z,85.61
2023-03-07T07:18:56.854Z,85.07
2023-03-07T07:28:30.995Z,84.77
2023-03-07T07:38:06.573Z,83.64
2023-03-07T07:47:39.841Z,82.60
2023-03-07T07:57:14.759Z,81.14
2023-03-07T08:06:47.376Z,79.80
2023-03-07T08:16:23.827Z,77.57
2023-03-07T08:17:27.730Z,77.79
2023-03-07T08:26:59.507Z,76.09
2023-03-07T08:28:01.939Z,76.09
2023-03-07T08:37:37.664Z,75.45
2023-03-07T08:47:10.411Z,75.06
2023-03-07T08:48:12.670Z,75.05
2023-03-07T08:49:15.147Z,74.75
2023-03-07T08:50:17.650Z,74.66
2023-03-07T08:51:21.636Z,74.62
2023-03-07T08:52:25.455Z,74.47
2023-03-07T08:53:29.401Z,74.30
2023-03-07T08:54:31.663Z,73.81
2023-03-07T08:55:35.684Z,73.66
2023-03-07T09:05:06.332Z,74.27
2023-03-07T09:06:10.268Z,73.73
2023-03-07T09:07:14.201Z,73.74
2023-03-07T09:08:16.461Z,73.50
2023-03-07T09:09:22.708Z,73.30
2023-03-07T09:10:24.765Z,72.84
2023-03-07T09:11:27.178Z,73.04
2023-03-07T09:12:31.158Z,73.09
2023-03-07T09:13:40.446Z,72.86
2023-03-07T09:14:38.944Z,72.09
2023-03-07T09:15:42.875Z,72.36
2023-03-07T09:16:45.134Z,72.29
2023-03-07T09:26:18.922Z,72.65
2023-03-07T09:27:21.192Z,72.49
2023-03-07T09:28:25.306Z,72.28
2023-03-07T09:29:27.596Z,72.42
2023-03-07T09:30:30.112Z,72.29
2023-03-07T09:31:34.145Z,71.98
2023-03-07T09:32:36.421Z,71.81
2023-03-07T09:33:39.036Z,71.65
2023-03-07T09:34:43.245Z,71.18
2023-03-07T09:35:47.103Z,71.26
2023-03-07T09:36:51.161Z,69.98
2023-03-07T09:37:55.193Z,69.96
2023-03-07T09:38:59.006Z,70.28
2023-03-07T09:40:01.319Z,70.58
2023-03-07T09:41:05.361Z,70.43
2023-03-07T09:42:07.729Z,70.30
2023-03-07T09:43:11.716Z,69.93
2023-03-07T09:44:15.591Z,69.61
2023-03-07T09:45:17.839Z,69.07
2023-03-07T09:46:21.812Z,69.32
2023-03-07T09:47:25.695Z,68.85
2023-03-07T09:48:29.523Z,68.84
2023-03-07T09:58:01.532Z,68.87
2023-03-07T09:59:11.026Z,68.13
2023-03-07T10:00:06.379Z,68.03
2023-03-07T10:01:08.854Z,67.66
2023-03-07T10:02:11.229Z,67.06
2023-03-07T10:03:13.723Z,66.82
2023-03-07T10:04:16.186Z,66.65
2023-03-07T10:05:18.578Z,66.88
2023-03-07T10:06:22.562Z,66.57
2023-03-07T10:07:24.852Z,66.22
2023-03-07T10:08:28.931Z,66.41
2023-03-07T10:09:32.850Z,66.50
2023-03-07T10:10:36.711Z,66.95
2023-03-07T10:11:39.060Z,66.96
2023-03-07T10:12:43.150Z,67.43
2023-03-07T10:13:45.431Z,67.05
2023-03-07T10:14:49.447Z,66.69
2023-03-07T10:15:53.420Z,67.03
2023-03-07T10:16:57.237Z,66.88
2023-03-07T10:17:59.552Z,67.02
2023-03-07T10:19:01.943Z,66.85
2023-03-07T10:20:04.357Z,65.54
2023-03-07T10:21:06.826Z,65.67
2023-03-07T10:22:11.833Z,64.28
2023-03-07T10:23:14.045Z,65.16
2023-03-07T10:24:16.444Z,65.17
2023-03-07T10:25:20.521Z,66.30
2023-03-07T10:34:51.183Z,63.46
2023-03-07T10:35:53.577Z,63.71
2023-03-07T10:37:08.017Z,62.00
2023-03-07T10:37:58.540Z,61.14
2023-03-07T10:39:00.925Z,61.47
2023-03-07T10:40:05.046Z,60.90
2023-03-07T10:41:07.402Z,60.77
2023-03-07T10:42:09.615Z,61.38
2023-03-07T10:43:12.079Z,61.06
2023-03-07T10:44:14.508Z,60.81
2023-03-07T10:45:16.950Z,61.03
2023-03-07T10:46:25.605Z,60.99
2023-03-07T10:47:23.384Z,59.69
2023-03-07T10:48:25.702Z,59.79
2023-03-07T10:49:29.131Z,60.14
2023-03-07T10:50:31.486Z,59.55
2023-03-07T10:51:33.939Z,59.68
2023-03-07T10:52:36.336Z,59.65
2023-03-07T10:53:38.794Z,59.52
2023-03-07T10:54:42.796Z,59.74
2023-03-07T10:55:46.722Z,59.51
2023-03-07T10:56:49.009Z,58.57
2023-03-07T10:57:51.457Z,58.45
2023-03-07T10:58:53.925Z,58.48
2023-03-07T10:59:56.357Z,58.29
2023-03-07T11:00:58.829Z,58.44
2023-03-07T11:02:01.229Z,58.76
2023-03-07T11:03:03.637Z,58.66
2023-03-07T11:04:06.078Z,58.32
2023-03-07T11:05:10.181Z,58.34
2023-03-07T11:06:12.564Z,58.19
2023-03-07T11:07:14.864Z,58.78
2023-03-07T11:08:18.909Z,58.69
2023-03-07T11:09:21.211Z,58.66
2023-03-07T11:10:23.618Z,58.69
2023-03-07T11:11:26.059Z,57.86
2023-03-07T11:12:30.034Z,58.30
2023-03-07T11:13:33.936Z,58.25
2023-03-07T11:14:36.221Z,58.23
2023-03-07T11:15:40.225Z,57.79
2023-03-07T11:16:42.697Z,57.92
2023-03-07T11:17:46.573Z,57.57
2023-03-07T11:18:48.810Z,58.12
2023-03-07T11:19:51.181Z,57.19
2023-03-07T11:20:53.622Z,57.70
2023-03-07T11:21:55.989Z,57.78
2023-03-07T11:22:59.889Z,58.00
2023-03-07T11:24:02.348Z,57.77
2023-03-07T11:25:06.219Z,57.05
2023-03-07T11:26:10.068Z,56.92
2023-03-07T11:27:12.276Z,56.84
2023-03-07T11:28:16.342Z,56.96
2023-03-07T11:29:20.206Z,56.91
2023-03-07T11:30:24.030Z,57.38
2023-03-07T11:31:26.440Z,57.31
2023-03-07T11:32:30.386Z,56.94
2023-03-07T11:33:34.211Z,57.21
2023-03-07T11:34:36.546Z,56.87
2023-03-07T11:35:38.964Z,56.98
2023-03-07T11:36:41.193Z,57.02
2023-03-07T11:37:43.659Z,56.96
2023-03-07T11:38:46.011Z,56.78
2023-03-07T11:39:48.599Z,57.33
2023-03-07T11:40:50.863Z,57.54
2023-03-07T11:41:53.239Z,57.66
2023-03-07T11:42:55.621Z,58.07
2023-03-07T11:43:58.027Z,57.64
2023-03-07T11:45:02.006Z,57.67
2023-03-07T11:46:04.393Z,57.71
2023-03-07T11:47:08.207Z,57.43
2023-03-07T11:48:10.521Z,58.20
2023-03-07T11:49:12.928Z,57.99
2023-03-07T11:50:15.322Z,57.72
2023-03-07T11:51:17.673Z,57.95
2023-03-07T11:52:20.118Z,58.14
2023-03-07T11:53:24.104Z,57.41
2023-03-07T11:54:26.390Z,57.29
2023-03-07T11:55:28.740Z,57.76
2023-03-07T11:56:32.700Z,57.68
2023-03-07T11:57:34.986Z,57.66
2023-03-07T11:58:37.357Z,58.00
2023-03-07T11:59:39.738Z,58.09
2023-03-07T12:00:43.768Z,57.81
2023-03-07T12:01:46.019Z,57.84
2023-03-07T12:02:48.429Z,58.05
2023-03-07T12:03:52.431Z,58.19
2023-03-07T12:04:56.287Z,58.61
2023-03-07T12:06:00.213Z,58.38
2023-03-07T12:07:04.048Z,58.16
2023-03-07T12:08:06.268Z,57.76
2023-03-07T12:09:08.701Z,57.73
2023-03-07T12:10:11.126Z,57.98
2023-03-07T12:11:13.534Z,58.39
2023-03-07T12:12:17.585Z,58.02
2023-03-07T12:13:19.823Z,58.57
2023-03-07T12:14:22.171Z,57.65
2023-03-07T12:15:24.672Z,57.99
2023-03-07T12:16:28.753Z,58.76
2023-03-07T12:17:31.021Z,57.08
2023-03-07T12:18:33.497Z,57.46
2023-03-07T12:19:37.476Z,56.74
2023-03-07T12:20:39.773Z,56.31
2023-03-07T12:21:43.728Z,57.15
2023-03-07T12:22:46.024Z,56.69
2023-03-07T12:23:49.991Z,56.73
2023-03-07T12:24:52.264Z,56.23
2023-03-07T12:25:54.602Z,56.37
2023-03-07T12:26:56.951Z,56.76
2023-03-07T12:27:59.372Z,56.43
2023-03-07T12:29:03.418Z,56.83
2023-03-07T12:30:05.650Z,57.07
2023-03-07T12:31:08.292Z,57.05
2023-03-07T12:32:10.549Z,56.68
2023-03-07T12:33:13.091Z,57.19
2023-03-07T12:34:15.244Z,57.20
2023-03-07T12:35:19.237Z,57.46
2023-03-07T12:36:21.577Z,57.36
2023-03-07T12:37:25.518Z,57.41
2023-03-07T12:38:29.432Z,56.94
2023-03-07T12:39:31.674Z,56.99
2023-03-07T12:40:34.027Z,57.03
2023-03-07T12:41:36.325Z,57.48
2023-03-07T12:42:38.733Z,58.10
2023-03-07T12:43:42.801Z,58.26
2023-03-07T12:44:46.693Z,58.49
2023-03-07T12:45:50.644Z,58.35
2023-03-07T12:46:54.344Z,58.79
2023-03-07T12:47:58.131Z,58.52
2023-03-07T12:49:02.070Z,58.00
2023-03-07T12:50:05.862Z,58.05
2023-03-07T12:51:09.893Z,58.57
2023-03-07T12:52:13.607Z,58.54
2023-03-07T12:53:15.837Z,58.68
2023-03-07T12:54:19.802Z,58.97
2023-03-07T12:55:22.164Z,59.22
2023-03-07T12:56:24.545Z,59.52
2023-03-07T12:57:28.488Z,59.90
2023-03-07T12:58:30.837Z,59.84
2023-03-07T12:59:33.196Z,59.65
2023-03-07T13:00:37.530Z,60.06
2023-03-07T13:01:41.189Z,60.32
2023-03-07T13:02:44.904Z,61.04
2023-03-07T13:03:47.305Z,60.30
2023-03-07T13:04:49.646Z,60.82
2023-03-07T13:05:53.611Z,61.13
2023-03-07T13:06:57.450Z,60.90
2023-03-07T13:08:01.370Z,61.32
2023-03-07T13:09:03.532Z,61.22
2023-03-07T13:10:07.456Z,61.51
2023-03-07T13:11:11.378Z,61.25
2023-03-07T13:12:15.255Z,61.71
2023-03-07T13:13:17.508Z,61.68
2023-03-07T13:14:21.518Z,62.03
2023-03-07T13:15:23.682Z,62.35
2023-03-07T13:16:26.101Z,62.27
2023-03-07T13:17:28.471Z,62.52
2023-03-07T13:18:30.895Z,62.72
2023-03-07T13:19:33.254Z,63.06
2023-03-07T13:20:37.334Z,62.85
2023-03-07T13:21:41.129Z,63.01
2023-03-07T13:22:43.345Z,62.83
2023-03-07T13:23:47.363Z,63.30
2023-03-07T13:24:49.668Z,63.21
2023-03-07T13:25:52.016Z,62.87
2023-03-07T13:26:54.425Z,63.03
2023-03-07T13:27:56.772Z,63.34
2023-03-07T13:29:00.749Z,63.78
2023-03-07T13:30:02.997Z,63.89
2023-03-07T13:31:05.516Z,63.85
2023-03-07T13:32:08.001Z,63.68
2023-03-07T13:33:11.826Z,63.74
2023-03-07T13:34:14.076Z,63.87
2023-03-07T13:35:16.486Z,63.70
2023-03-07T13:36:18.910Z,64.12
2023-03-07T13:37:21.271Z,64.05
2023-03-07T13:38:23.719Z,63.70
2023-03-07T13:39:26.165Z,63.82
2023-03-07T13:40:28.522Z,63.98
2023-03-07T13:41:30.902Z,64.22
2023-03-07T13:42:33.280Z,64.34
2023-03-07T13:43:35.729Z,64.35
2023-03-07T13:44:39.716Z,64.18
2023-03-07T13:45:42.024Z,63.70
2023-03-07T13:46:44.324Z,64.00
2023-03-07T13:47:46.702Z,64.37
2023-03-07T13:48:49.091Z,64.57
2023-03-07T13:49:51.529Z,64.88
2023-03-07T13:50:55.496Z,64.82
2023-03-07T13:51:59.428Z,64.81
2023-03-07T13:53:03.220Z,64.95
2023-03-07T13:54:05.426Z,64.77
2023-03-07T13:55:07.826Z,65.04
2023-03-07T13:56:11.792Z,64.42
2023-03-07T13:57:13.960Z,64.31
2023-03-07T13:58:18.217Z,63.98
2023-03-07T13:59:22.058Z,63.83
2023-03-07T14:00:24.269Z,63.95
2023-03-07T14:01:26.713Z,63.85
2023-03-07T14:02:30.656Z,63.45
2023-03-07T14:03:32.999Z,63.65
2023-03-07T14:04:40.595Z,63.67
2023-03-07T14:05:39.240Z,63.53
2023-03-07T14:06:43.218Z,63.47
2023-03-07T14:07:47.045Z,63.22
2023-03-07T14:08:49.316Z,63.19
2023-03-07T14:09:51.646Z,63.02
2023-03-07T14:10:54.043Z,62.97
2023-03-07T14:11:56.493Z,63.35
2023-03-07T14:12:58.839Z,63.31
2023-03-07T14:14:01.261Z,63.46
2023-03-07T14:15:03.739Z,63.64
2023-03-07T14:16:07.752Z,63.53
2023-03-07T14:17:10.198Z,63.49
2023-03-07T14:18:14.191Z,63.84
2023-03-07T14:19:16.424Z,63.75
2023-03-07T14:20:18.778Z,63.91
2023-03-07T14:21:22.772Z,63.91
2023-03-07T14:22:25.034Z,63.89
2023-03-07T14:23:27.469Z,64.22
2023-03-07T14:24:31.498Z,64.60
2023-03-07T14:25:33.872Z,64.58
2023-03-07T14:26:37.618Z,64.86
2023-03-07T14:27:41.504Z,65.23
2023-03-07T14:28:43.801Z,65.01
2023-03-07T14:29:47.787Z,65.36
2023-03-07T14:30:50.008Z,65.56
2023-03-07T14:31:53.966Z,65.86
2023-03-07T14:32:56.305Z,66.03
2023-03-07T14:34:00.283Z,66.04
2023-03-07T14:35:08.073Z,66.29
2023-03-07T14:36:10.203Z,66.33
2023-03-07T14:37:12.547Z,66.40
2023-03-07T14:38:15.011Z,66.48
2023-03-07T14:39:18.904Z,66.38
2023-03-07T14:40:21.183Z,66.26
2023-03-07T14:41:25.234Z,66.45
2023-03-07T14:42:29.027Z,66.72
2023-03-07T14:43:32.840Z,66.71
2023-03-07T14:44:36.748Z,66.93
2023-03-07T14:45:39.012Z,66.80
2023-03-07T14:46:41.428Z,66.96
2023-03-07T14:47:45.364Z,66.80
2023-03-07T14:48:47.641Z,67.07
2023-03-07T14:49:51.747Z,67.27
2023-03-07T14:50:53.981Z,67.23
2023-03-07T14:51:56.386Z,67.34
2023-03-07T14:53:00.430Z,67.40
2023-03-07T14:54:02.653Z,67.45
2023-03-07T14:55:05.049Z,67.60
2023-03-07T14:56:07.504Z,67.93
2023-03-07T14:57:09.798Z,67.98
2023-03-07T14:58:12.190Z,68.21
2023-03-07T14:59:26.240Z,68.33
2023-03-07T15:00:18.634Z,68.53
2023-03-07T15:01:20.999Z,68.46
2023-03-07T15:02:24.882Z,68.67
2023-03-07T15:03:28.762Z,68.56
2023-03-07T15:04:32.693Z,68.79
2023-03-07T15:05:36.524Z,68.69
2023-03-07T15:06:40.338Z,68.83
2023-03-07T15:07:45.123Z,68.81
2023-03-07T15:08:48.171Z,68.49
2023-03-07T15:09:52.050Z,68.80
2023-03-07T15:10:54.285Z,68.59
2023-03-07T15:11:58.236Z,68.62
2023-03-07T15:13:02.145Z,68.47
2023-03-07T15:14:04.416Z,68.73
2023-03-07T15:15:06.750Z,68.37
2023-03-07T15:16:10.775Z,68.58
2023-03-07T15:17:14.675Z,68.92
2023-03-07T15:18:16.951Z,68.92
2023-03-07T15:19:19.208Z,69.01
2023-03-07T15:20:23.191Z,68.98
2023-03-07T15:21:27.091Z,68.55
2023-03-07T15:22:30.963Z,68.07
2023-03-07T15:23:34.810Z,68.12
2023-03-07T15:24:37.057Z,67.93
2023-03-07T15:25:39.442Z,67.76
2023-03-07T15:26:41.829Z,67.70
2023-03-07T15:27:44.191Z,67.59
2023-03-07T15:28:48.247Z,67.83
2023-03-07T15:29:52.084Z,67.74
2023-03-07T15:30:55.973Z,67.64
2023-03-07T15:31:59.937Z,67.72
2023-03-07T15:33:02.113Z,67.47
2023-03-07T15:34:04.747Z,67.79
2023-03-07T15:35:08.645Z,67.77
2023-03-07T15:36:12.664Z,68.03
2023-03-07T15:37:16.492Z,67.56
2023-03-07T15:38:18.675Z,67.86
2023-03-07T15:39:21.064Z,68.41
2023-03-07T15:40:23.617Z,68.32
2023-03-07T15:41:27.394Z,68.57
2023-03-07T15:42:29.804Z,68.57
2023-03-07T15:43:33.691Z,67.94
2023-03-07T15:44:37.596Z,67.49
2023-03-07T15:45:41.461Z,67.64
2023-03-07T15:46:43.689Z,67.83
2023-03-07T15:47:47.627Z,68.41
2023-03-07T15:48:49.911Z,68.27
2023-03-07T15:49:52.318Z,68.62
2023-03-07T15:50:54.713Z,68.83
2023-03-07T15:51:57.082Z,68.30
2023-03-07T15:53:00.527Z,68.50
2023-03-07T15:54:04.447Z,68.57
2023-03-07T15:55:06.731Z,68.75
2023-03-07T15:56:09.086Z,68.62
2023-03-07T15:57:13.131Z,68.29
2023-03-07T15:58:15.364Z,67.99
2023-03-07T15:59:17.823Z,67.87
2023-03-07T16:00:20.212Z,67.82
2023-03-07T16:01:22.683Z,67.78
2023-03-07T16:02:25.029Z,67.80
2023-03-07T16:03:29.102Z,67.77
2023-03-07T16:04:31.275Z,68.17
2023-03-07T16:05:35.278Z,68.33
2023-03-07T16:06:37.539Z,68.35
2023-03-07T16:07:41.467Z,68.42
2023-03-07T16:08:45.354Z,68.46
2023-03-07T16:09:47.693Z,68.85
2023-03-07T16:10:51.680Z,68.58
2023-03-07T16:11:54.029Z,68.66
2023-03-07T16:12:56.288Z,68.89
2023-03-07T16:14:00.249Z,68.97
2023-03-07T16:15:04.175Z,68.89
2023-03-07T16:16:08.167Z,68.75
2023-03-07T16:17:11.969Z,68.94
2023-03-07T16:18:15.792Z,69.06
2023-03-07T16:19:19.584Z,69.10
2023-03-07T16:20:21.834Z,69.10
2023-03-07T16:21:25.841Z,69.29
2023-03-07T16:22:28.148Z,69.84
2023-03-07T16:23:32.246Z,70.26
2023-03-07T16:24:36.158Z,70.52
2023-03-07T16:25:38.391Z,71.06
2023-03-07T16:26:40.787Z,71.38
2023-03-07T16:27:44.784Z,71.75
2023-03-07T16:28:48.013Z,72.08
2023-03-07T16:29:51.924Z,71.39
2023-03-07T16:30:55.797Z,71.33
2023-03-07T16:31:58.049Z,71.16
2023-03-07T16:33:00.403Z,71.13
2023-03-07T16:34:02.800Z,71.22
2023-03-07T16:35:05.188Z,70.95
2023-03-07T16:36:07.614Z,70.96
2023-03-07T16:37:09.991Z,71.51
2023-03-07T16:38:12.476Z,71.80
2023-03-07T16:39:14.746Z,71.97
2023-03-07T16:48:47.781Z,72.84
2023-03-07T16:49:51.666Z,72.68
2023-03-07T16:50:55.510Z,72.58
2023-03-07T16:52:05.443Z,72.30
2023-03-07T16:53:03.276Z,72.08
2023-03-07T16:54:07.093Z,71.73
2023-03-07T16:55:09.293Z,71.69
2023-03-07T16:56:13.305Z,71.57
2023-03-07T16:57:17.143Z,71.71
2023-03-07T17:06:54.901Z,72.15
2023-03-07T17:16:21.806Z,71.46
2023-03-07T17:25:53.115Z,71.77
2023-03-07T17:35:26.760Z,71.71
2023-03-07T17:36:29.226Z,71.71
2023-03-07T17:46:02.671Z,69.82
2023-03-07T17:55:36.412Z,69.35
2023-03-07T18:05:10.427Z,68.74
2023-03-07T18:14:45.598Z,68.28
2023-03-07T18:24:18.750Z,68.11
2023-03-07T18:33:51.346Z,68.46
2023-03-07T18:43:25.355Z,68.73
2023-03-07T18:52:59.768Z,68.24
2023-03-07T19:02:33.068Z,68.23
2023-03-07T19:12:07.134Z,68.11
2023-03-07T19:21:41.115Z,68.51
2023-03-07T19:31:15.173Z,68.54
2023-03-07T19:40:50.511Z,68.88
2023-03-07T19:50:22.487Z,69.16
2023-03-07T19:59:56.518Z,69.13
2023-03-07T20:09:31.063Z,69.26
2023-03-07T20:19:04.537Z,69.13
2023-03-07T20:28:38.482Z,68.83
2023-03-07T20:38:12.467Z,68.43
2023-03-07T20:47:46.244Z,67.42
2023-03-07T20:57:20.270Z,67.04
2023-03-07T21:06:55.987Z,66.71
2023-03-07T21:16:29.830Z,67.08
2023-03-07T21:26:02.167Z,67.08
2023-03-07T21:35:36.163Z,66.79
2023-03-07T21:45:09.753Z,66.45
2023-03-07T21:54:45.078Z,66.13
2023-03-07T22:04:17.523Z,73.41
2023-03-07T22:13:52.424Z,79.37
2023-03-07T22:23:24.001Z,84.79
2023-03-07T22:32:57.569Z,87.98
2023-03-07T22:42:32.583Z,89.45
2023-03-07T22:52:06.693Z,89.81
2023-03-07T23:01:38.364Z,91.36
2023-03-07T23:11:12.040Z,91.97
2023-03-07T23:20:47.557Z,92.87
2023-03-07T23:30:21.103Z,93.34
2023-03-07T23:39:54.642Z,93.31
2023-03-07T23:49:28.300Z,93.89
2023-03-07T23:59:01.875Z,93.80
